KESC/ESC METAR and TAF weather

Enter ICAO airport designator
Station Type Date Time Source
KESC METAR 2020/06/05 10:56 UTC NOAA

KESC 051056Z AUTO 31004KT 10SM OVC110 10/09 A2984 RMK AO2 SLP109 T01000094


Station Type Date Time Source
KESC Decoded METAR 2020/06/05 10:56 UTC NOAA

Escanaba, MI, United States (KESC) 45-45N 087-02W 187M
Jun 05, 2020 - 06:56 AM EDT / 2020.06.05 1056 UTC
Wind: from the NW (310 degrees) at 5 MPH (4 KT):0
Visibility: 10 mile(s):0
Sky conditions: overcast
Temperature: 50.0 F (10.0 C)
Dew Point: 48.9 F (9.4 C)
Relative Humidity: 96%
Pressure (altimeter): 29.84 in. Hg (1010 hPa)
ob: KESC 051056Z AUTO 31004KT 10SM OVC110 10/09 A2984 RMK AO2 SLP109 T01000094
cycle: 11

Station Type Date Time Source
KESC TAF UTC NOAA

Error!

Example: see airport list